Time;durP1;ratioP1;P1;durP2;ratioP2;P2;SDS_P1;SDS_P2;PMS_P1;PMS_P2;Temp;Humidity;BMP_temperature;BMP_pressure;BME280_temperature;BME280_humidity;BME280_pressure;Samples;Min_cycle;Max_cycle;Signal;HPM_P1;HPM_P2
2022/07/09 00:02:23;;;;;;;2.72;2.53;;;;;;;17.59;82.59;93340.91;5026641;28;20025;-45
2022/07/09 00:04:48;;;;;;;2.97;2.58;;;;;;;17.59;82.71;93336.06;5026601;28;20022;-46
2022/07/09 00:07:13;;;;;;;3.78;2.15;;;;;;;17.60;83.01;93336.78;5026615;28;20080;-44
2022/07/09 00:09:39;;;;;;;2.78;2.55;;;;;;;17.65;82.73;93333.66;5026473;28;20076;-45
2022/07/09 00:12:05;;;;;;;3.30;3.00;;;;;;;17.49;83.77;93327.00;5026505;28;20030;-46
2022/07/09 00:14:30;;;;;;;3.22;2.92;;;;;;;17.45;84.18;93327.44;5026654;28;20020;-44
2022/07/09 00:16:56;;;;;;;3.63;3.33;;;;;;;17.34;83.54;93327.38;5026339;28;20022;-45
2022/07/09 00:19:21;;;;;;;3.42;3.10;;;;;;;17.45;83.26;93323.94;5026501;28;20037;-46
2022/07/09 00:21:47;;;;;;;6.80;3.03;;;;;;;17.40;84.26;93324.97;5014483;28;20463;-43
2022/07/09 00:24:12;;;;;;;4.75;3.60;;;;;;;17.38;84.19;93328.38;5013126;28;20041;-47
2022/07/09 00:26:37;;;;;;;7.18;4.15;;;;;;;17.47;84.08;93323.31;5013273;28;20026;-46
2022/07/09 00:29:03;;;;;;;5.40;4.65;;;;;;;17.50;83.66;93308.19;5012946;28;20583;-46
2022/07/09 00:31:28;;;;;;;7.30;3.95;;;;;;;17.48;83.23;93325.50;5013248;28;20037;-45
2022/07/09 00:33:54;;;;;;;6.10;5.13;;;;;;;17.56;82.72;93325.34;5012962;28;20466;-46
2022/07/09 00:36:19;;;;;;;6.38;4.93;;;;;;;17.47;83.67;93318.47;5013272;28;20136;-47
2022/07/09 00:38:45;;;;;;;11.07;6.50;;;;;;;17.43;82.78;93312.63;5013107;28;20026;-45
2022/07/09 00:41:10;;;;;;;14.50;6.88;;;;;;;17.48;82.57;93305.97;5013211;28;20495;-48
2022/07/09 00:43:36;;;;;;;14.20;7.80;;;;;;;17.48;82.57;93305.25;5013141;28;20482;-45
2022/07/09 00:46:01;;;;;;;7.43;6.07;;;;;;;17.40;82.52;93308.25;5012720;28;20026;-43
2022/07/09 00:48:26;;;;;;;6.95;4.63;;;;;;;17.33;82.64;93301.53;5012598;28;20048;-45
2022/07/09 00:50:53;;;;;;;7.28;5.22;;;;;;;17.30;82.91;93296.41;5012803;28;20030;-47
2022/07/09 00:53:22;;;;;;;5.32;3.70;;;;;;;17.19;82.55;93295.00;5012912;28;20168;-46
2022/07/09 00:55:47;;;;;;;4.00;3.47;;;;;;;17.15;83.50;93291.22;5011524;28;20043;-45
2022/07/09 00:58:16;;;;;;;4.80;3.38;;;;;;;16.94;84.37;93257.69;5011341;28;20037;-47
2022/07/09 01:00:42;;;;;;;3.88;3.50;;;;;;;17.23;83.40;93288.97;5011648;28;20021;-44
2022/07/09 01:03:07;;;;;;;3.55;2.92;;;;;;;17.17;82.66;93292.06;5011195;28;20041;-44
2022/07/09 01:05:35;;;;;;;4.00;2.97;;;;;;;17.19;83.32;93280.31;5012529;28;20026;-46
2022/07/09 01:08:05;;;;;;;2.75;2.53;;;;;;;17.17;82.83;93282.97;5012510;28;20521;-43
2022/07/09 01:10:31;;;;;;;3.67;3.30;;;;;;;17.13;82.80;93283.41;5012461;28;20029;-46
2022/07/09 01:12:57;;;;;;;3.45;3.10;;;;;;;17.13;82.94;93279.91;5012532;28;20109;-44
2022/07/09 01:15:22;;;;;;;3.47;3.17;;;;;;;17.09;83.73;93280.38;5011348;28;20514;-45
2022/07/09 01:17:48;;;;;;;3.40;3.10;;;;;;;17.11;83.78;93285.34;5011571;28;20026;-45
2022/07/09 01:20:13;;;;;;;6.75;2.70;;;;;;;17.16;83.96;93276.66;5011925;28;20112;-44
2022/07/09 01:22:41;;;;;;;4.85;3.15;;;;;;;17.16;83.46;93278.72;5011899;28;20025;-44
2022/07/09 01:25:09;;;;;;;3.40;3.10;;;;;;;17.08;84.00;93267.03;5012361;28;20105;-46
2022/07/09 01:27:36;;;;;;;3.75;3.45;;;;;;;17.20;83.33;93273.41;5012011;28;20032;-47
2022/07/09 01:30:04;;;;;;;3.47;3.17;;;;;;;17.22;83.16;93281.91;5012228;28;20029;-44
2022/07/09 01:32:29;;;;;;;3.90;3.50;;;;;;;17.20;83.58;93284.56;5011089;28;20111;-47
2022/07/09 01:34:54;;;;;;;3.70;3.30;;;;;;;17.27;83.17;93278.06;5012059;28;20643;-47
2022/07/09 01:37:20;;;;;;;4.18;3.78;;;;;;;17.31;82.81;93279.06;5012069;28;20411;-44
2022/07/09 01:39:52;;;;;;;7.80;3.53;;;;;;;17.20;80.86;93262.25;5011706;28;20499;-45
2022/07/09 01:42:21;;;;;;;4.20;3.80;;;;;;;17.24;81.88;93274.41;5011731;28;20032;-45
2022/07/09 01:44:48;;;;;;;4.25;3.22;;;;;;;17.31;81.93;93278.31;5011273;28;20491;-44
2022/07/09 01:47:16;;;;;;;3.78;3.40;;;;;;;17.21;82.43;93263.72;5011899;28;20423;-46
2022/07/09 01:49:42;;;;;;;3.80;3.50;;;;;;;17.32;81.12;93280.53;5011496;28;20117;-42
2022/07/09 01:52:08;;;;;;;4.28;3.88;;;;;;;16.91;84.01;93262.41;5011683;28;20084;-46
2022/07/09 01:54:34;;;;;;;9.27;3.22;;;;;;;17.00;83.47;93278.34;5011345;28;20036;-44
2022/07/09 01:56:59;;;;;;;4.57;4.18;;;;;;;17.06;83.15;93287.16;5010273;28;20412;-46
2022/07/09 01:59:25;;;;;;;3.70;3.25;;;;;;;17.14;81.78;93276.53;5011288;28;20022;-42
2022/07/09 02:01:50;;;;;;;5.68;4.05;;;;;;;16.99;81.85;93292.91;5011337;28;20032;-42
2022/07/09 02:04:15;;;;;;;4.32;3.10;;;;;;;16.95;80.54;93284.25;5011263;28;20030;-42
2022/07/09 02:06:41;;;;;;;3.70;3.30;;;;;;;17.03;80.59;93287.59;5011158;28;20091;-42
2022/07/09 02:09:06;;;;;;;3.97;3.58;;;;;;;16.97;81.45;93292.78;5011134;28;20026;-44
2022/07/09 02:11:32;;;;;;;5.93;3.80;;;;;;;17.04;82.33;93294.66;5011512;28;20037;-46
2022/07/09 02:13:58;;;;;;;5.32;3.50;;;;;;;16.84;83.67;93299.59;5011104;28;20053;-45
2022/07/09 02:16:24;;;;;;;5.07;3.78;;;;;;;16.93;84.06;93292.50;5011463;28;20423;-43
2022/07/09 02:18:50;;;;;;;4.15;3.67;;;;;;;16.98;84.51;93285.88;5009562;28;20026;-45
2022/07/09 02:21:16;;;;;;;3.47;3.17;;;;;;;17.11;82.05;93299.28;5011044;28;20029;-46
2022/07/09 02:23:41;;;;;;;4.20;3.78;;;;;;;17.18;80.55;93309.53;5011147;28;20057;-46
2022/07/09 02:26:07;;;;;;;6.75;4.15;;;;;;;17.08;82.86;93317.22;5011177;28;20525;-45
2022/07/09 02:28:32;;;;;;;6.25;3.47;;;;;;;17.05;82.73;93304.47;5010752;28;20135;-45
2022/07/09 02:30:57;;;;;;;3.28;2.97;;;;;;;16.84;81.52;93296.06;5010786;28;20023;-47
2022/07/09 02:33:23;;;;;;;6.28;4.45;;;;;;;16.69;84.09;93313.88;5011146;28;20029;-44
2022/07/09 02:35:49;;;;;;;4.15;3.75;;;;;;;16.56;83.89;93295.59;5010725;28;20030;-44
2022/07/09 02:38:14;;;;;;;4.40;4.00;;;;;;;16.78;81.55;93292.84;5010973;28;20036;-45
2022/07/09 02:40:39;;;;;;;4.97;3.95;;;;;;;16.75;81.41;93291.25;5010846;28;20018;-43
2022/07/09 02:43:05;;;;;;;5.28;4.22;;;;;;;16.80;80.96;93296.53;5010685;28;20041;-44
2022/07/09 02:45:30;;;;;;;4.00;3.60;;;;;;;16.81;80.71;93289.59;5010327;28;20030;-43
2022/07/09 02:47:56;;;;;;;5.75;3.70;;;;;;;16.83;82.00;93283.44;5010546;28;20033;-43
2022/07/09 02:50:21;;;;;;;4.55;4.15;;;;;;;16.76;82.41;93296.25;5010393;28;20029;-46
2022/07/09 02:52:47;;;;;;;5.00;4.60;;;;;;;16.75;83.75;93289.19;5010731;28;20022;-43
2022/07/09 02:55:12;;;;;;;5.13;4.65;;;;;;;16.79;84.73;93285.94;5010821;28;20502;-43
2022/07/09 02:57:38;;;;;;;9.05;4.28;;;;;;;16.90;82.85;93288.84;5010731;28;20435;-44
2022/07/09 03:00:04;;;;;;;4.85;4.38;;;;;;;16.94;82.60;93291.16;5010464;28;20049;-44
2022/07/09 03:02:29;;;;;;;7.32;3.90;;;;;;;16.86;83.84;93302.50;5009149;28;20410;-44
2022/07/09 03:04:55;;;;;;;5.13;4.63;;;;;;;16.78;86.12;93312.38;5010400;28;20029;-43
2022/07/09 03:07:20;;;;;;;4.90;4.35;;;;;;;16.74;86.60;93300.94;5009875;28;20025;-44
2022/07/09 03:09:46;;;;;;;10.10;5.35;;;;;;;16.85;85.94;93311.47;5010480;28;20026;-43
2022/07/09 03:12:11;;;;;;;5.57;4.75;;;;;;;16.82;84.95;93318.22;5009058;28;20034;-45
2022/07/09 03:14:36;;;;;;;5.72;5.30;;;;;;;16.79;85.04;93314.56;5010211;28;20033;-44
2022/07/09 03:17:02;;;;;;;5.47;4.55;;;;;;;16.86;84.61;93315.72;5010090;28;20029;-44
2022/07/09 03:19:28;;;;;;;7.80;5.50;;;;;;;16.84;84.88;93316.31;5010324;28;20046;-45
2022/07/09 03:21:53;;;;;;;4.85;4.40;;;;;;;16.77;84.62;93311.63;5010633;28;20411;-46
2022/07/09 03:24:18;;;;;;;5.97;5.10;;;;;;;16.84;84.11;93307.22;5010279;28;20026;-44
2022/07/09 03:26:44;;;;;;;5.40;4.85;;;;;;;16.74;83.31;93300.94;5010130;28;20038;-44
2022/07/09 03:29:09;;;;;;;8.23;4.72;;;;;;;16.77;84.83;93319.25;5010358;28;20022;-45
2022/07/09 03:31:35;;;;;;;5.70;5.20;;;;;;;16.84;83.79;93305.16;5010235;28;20104;-47
2022/07/09 03:34:00;;;;;;;5.20;4.60;;;;;;;16.96;82.10;93310.81;5010442;28;20030;-45
2022/07/09 03:36:26;;;;;;;6.75;5.07;;;;;;;16.97;81.47;93310.25;5010159;28;20517;-45
2022/07/09 03:38:52;;;;;;;7.93;4.90;;;;;;;16.98;81.34;93310.97;5010431;28;20033;-46
2022/07/09 03:41:17;;;;;;;9.57;4.88;;;;;;;16.89;81.87;93286.66;5010354;28;20026;-47
2022/07/09 03:43:42;;;;;;;5.40;4.65;;;;;;;17.02;82.28;93300.09;5009349;28;20022;-46
2022/07/09 03:46:08;;;;;;;6.50;3.88;;;;;;;17.08;81.83;93300.50;5009681;28;20042;-44
2022/07/09 03:48:34;;;;;;;5.05;4.55;;;;;;;17.11;81.60;93296.50;5010191;28;20073;-43
2022/07/09 03:50:59;;;;;;;7.30;5.30;;;;;;;17.07;80.92;93313.72;5010290;28;20030;-45
2022/07/09 03:53:25;;;;;;;7.40;5.10;;;;;;;17.03;81.76;93307.13;5010263;28;20380;-44
2022/07/09 03:55:50;;;;;;;6.40;5.80;;;;;;;17.02;81.95;93305.66;5011278;28;20115;-47
2022/07/09 03:58:16;;;;;;;5.05;4.57;;;;;;;16.70;81.22;93283.94;5013655;28;20585;-45
2022/07/09 04:00:41;;;;;;;5.72;4.13;;;;;;;17.00;81.71;93317.41;5013413;28;20025;-47
2022/07/09 04:03:07;;;;;;;4.20;3.90;;;;;;;17.01;82.01;93306.97;5013454;28;20117;-45
2022/07/09 04:05:33;;;;;;;4.40;4.07;;;;;;;16.89;82.11;93309.66;5012351;28;20032;-46
2022/07/09 04:07:58;;;;;;;4.65;3.55;;;;;;;16.85;80.12;93317.75;5013440;28;20099;-43
2022/07/09 04:10:24;;;;;;;3.70;3.38;;;;;;;16.72;80.99;93312.66;5013597;28;20029;-46
2022/07/09 04:12:49;;;;;;;4.20;3.72;;;;;;;16.73;81.86;93319.00;5013633;28;20095;-45
2022/07/09 04:15:15;;;;;;;3.78;3.47;;;;;;;16.75;81.66;93314.28;5013291;28;20119;-45
2022/07/09 04:17:40;;;;;;;6.57;3.72;;;;;;;16.76;82.57;93315.75;5013161;28;20026;-46
2022/07/09 04:20:07;;;;;;;4.97;4.57;;;;;;;16.64;82.26;93307.28;5012442;28;20052;-43
2022/07/09 04:22:33;;;;;;;4.20;3.83;;;;;;;16.65;82.97;93302.44;5013391;28;20427;-43
2022/07/09 04:24:59;;;;;;;3.80;3.50;;;;;;;16.63;81.82;93321.81;5013112;28;20034;-46
2022/07/09 04:27:24;;;;;;;4.05;3.42;;;;;;;16.72;82.13;93317.53;5013497;28;20466;-43
2022/07/09 04:29:50;;;;;;;4.93;4.38;;;;;;;16.77;83.01;93322.06;5013027;28;20088;-46
2022/07/09 04:32:15;;;;;;;4.57;3.97;;;;;;;16.79;82.15;93313.81;5012973;28;20030;-44
2022/07/09 04:34:42;;;;;;;3.85;3.50;;;;;;;16.89;81.58;93311.75;5012841;28;20025;-46
2022/07/09 04:37:07;;;;;;;4.20;3.80;;;;;;;16.87;79.75;93306.03;5013232;28;20051;-46
2022/07/09 04:39:32;;;;;;;8.30;3.60;;;;;;;16.69;81.49;93311.09;5013255;28;20502;-45
2022/07/09 04:41:58;;;;;;;4.00;3.33;;;;;;;16.79;81.87;93314.56;5004852;28;20022;-45
2022/07/09 04:44:23;;;;;;;4.00;3.65;;;;;;;16.83;80.74;93309.25;4993282;28;20105;-45
2022/07/09 04:46:49;;;;;;;3.97;3.67;;;;;;;16.78;82.08;93307.53;5010246;28;20037;-46
2022/07/09 04:49:14;;;;;;;3.75;3.38;;;;;;;16.84;82.62;93312.78;5012964;28;20026;-46
2022/07/09 04:51:40;;;;;;;8.25;3.65;;;;;;;16.85;81.72;93312.19;5012690;28;20490;-45
2022/07/09 04:54:05;;;;;;;3.92;3.35;;;;;;;16.93;82.59;93320.38;5012623;28;20109;-48
2022/07/09 04:56:31;;;;;;;4.18;3.67;;;;;;;16.93;81.82;93314.81;5011651;28;20043;-47
2022/07/09 04:58:59;;;;;;;5.88;5.30;;;;;;;16.89;80.77;93317.31;5012718;28;20021;-48
2022/07/09 05:01:24;;;;;;;4.93;4.30;;;;;;;16.94;79.45;93319.78;5012497;28;20515;-49
2022/07/09 05:03:50;;;;;;;5.20;4.05;;;;;;;16.96;79.58;93322.72;5012316;28;20037;-48
2022/07/09 05:06:16;;;;;;;4.28;3.88;;;;;;;16.90;78.69;93322.31;5012580;28;20112;-49
2022/07/09 05:08:42;;;;;;;4.25;3.58;;;;;;;16.94;78.13;93327.41;5012480;28;20038;-45
2022/07/09 05:11:07;;;;;;;4.32;3.80;;;;;;;16.82;78.95;93329.38;5011491;28;20056;-47
2022/07/09 05:13:33;;;;;;;6.15;3.85;;;;;;;16.85;78.82;93328.91;5012278;28;20495;-46
2022/07/09 05:15:58;;;;;;;4.13;3.40;;;;;;;16.89;79.47;93318.03;5012244;28;20029;-45
2022/07/09 05:18:24;;;;;;;6.28;3.13;;;;;;;16.91;78.00;93323.78;5012091;28;20411;-44
2022/07/09 05:20:50;;;;;;;7.20;5.07;;;;;;;16.79;79.88;93308.25;5011858;28;20057;-45
2022/07/09 05:23:15;;;;;;;5.25;3.92;;;;;;;16.96;79.60;93310.81;5011943;28;20456;-44
2022/07/09 05:25:41;;;;;;;4.22;3.83;;;;;;;16.96;79.70;93328.28;5011872;28;20030;-46
2022/07/09 05:28:06;;;;;;;4.55;3.92;;;;;;;17.01;79.64;93318.88;5011903;28;20035;-45
2022/07/09 05:30:36;;;;;;;13.30;8.05;;;;;;;17.08;79.35;93322.81;5007929;28;20041;-45
2022/07/09 05:33:03;;;;;;;5.72;4.88;;;;;;;17.07;78.90;93326.91;5003301;28;20030;-45
2022/07/09 05:35:29;;;;;;;4.55;4.15;;;;;;;17.02;79.56;93337.06;5011584;28;20029;-45
2022/07/09 05:37:54;;;;;;;6.05;4.35;;;;;;;17.04;79.66;93339.28;5011609;28;20033;-45
2022/07/09 05:40:20;;;;;;;4.50;4.10;;;;;;;17.04;78.89;93339.28;5011471;28;20026;-48
2022/07/09 05:42:46;;;;;;;5.78;3.83;;;;;;;17.08;77.59;93345.88;5011598;28;20034;-46
2022/07/09 05:45:11;;;;;;;4.85;4.35;;;;;;;17.12;78.50;93348.94;5010411;28;20033;-47
2022/07/09 05:47:37;;;;;;;6.43;4.53;;;;;;;17.10;78.27;93342.47;5011538;28;20567;-44
2022/07/09 05:50:02;;;;;;;4.60;4.03;;;;;;;17.20;78.98;93346.69;5011270;28;20028;-44
2022/07/09 05:52:28;;;;;;;5.43;3.88;;;;;;;17.26;78.16;93341.50;5011430;28;20029;-46
2022/07/09 05:54:54;;;;;;;5.05;4.32;;;;;;;17.19;78.32;93342.44;5011537;28;20041;-46
2022/07/09 05:57:19;;;;;;;4.20;3.78;;;;;;;17.23;78.19;93353.88;5011582;28;20040;-46
2022/07/09 05:59:44;;;;;;;4.75;4.13;;;;;;;17.24;78.42;93341.38;5011668;28;20549;-46
2022/07/09 06:02:10;;;;;;;5.38;4.30;;;;;;;17.30;77.58;93350.13;5011510;28;20048;-45
2022/07/09 06:04:35;;;;;;;4.15;3.70;;;;;;;17.24;77.31;93354.56;5011353;28;20033;-47
2022/07/09 06:07:01;;;;;;;4.07;3.72;;;;;;;17.22;77.24;93354.44;5011309;28;20033;-46
2022/07/09 06:09:26;;;;;;;4.07;3.75;;;;;;;17.08;78.17;93345.13;5011389;28;20030;-42
2022/07/09 06:11:52;;;;;;;4.28;3.50;;;;;;;17.00;78.22;93352.94;5011112;28;20029;-45
2022/07/09 06:14:19;;;;;;;6.15;3.88;;;;;;;17.01;78.35;93357.19;5011211;28;20060;-48
2022/07/09 06:16:46;;;;;;;4.50;4.10;;;;;;;17.15;78.21;93358.16;5010979;28;20029;-47
2022/07/09 06:19:15;;;;;;;4.18;3.72;;;;;;;17.02;77.18;93353.78;4990750;28;20057;-46
2022/07/09 06:21:41;;;;;;;4.07;3.50;;;;;;;17.12;77.47;93356.56;4991702;28;20183;-45
2022/07/09 06:24:06;;;;;;;4.15;3.85;;;;;;;17.17;79.00;93353.44;4991308;28;20034;-45
2022/07/09 06:26:33;;;;;;;3.85;3.55;;;;;;;17.08;77.43;93356.28;4996811;28;20034;-44
2022/07/09 06:28:59;;;;;;;4.70;3.45;;;;;;;17.17;77.73;93342.28;5010785;28;20026;-44
2022/07/09 06:31:25;;;;;;;4.15;3.72;;;;;;;17.17;77.20;93344.34;5011224;28;20036;-45
2022/07/09 06:33:50;;;;;;;6.35;3.72;;;;;;;17.21;76.93;93344.63;5010356;28;20026;-46
2022/07/09 06:36:16;;;;;;;4.90;4.07;;;;;;;17.18;76.61;93345.81;5010706;28;20022;-46
2022/07/09 06:41:25;;;;;;;4.47;4.07;;;;;;;17.37;78.77;93343.66;5001577;28;20045;-43
2022/07/09 06:43:51;;;;;;;4.90;4.30;;;;;;;17.49;77.76;93349.31;5003305;28;20030;-47
2022/07/09 06:46:16;;;;;;;4.68;4.28;;;;;;;17.58;77.72;93350.63;5006308;28;20029;-44
2022/07/09 06:48:42;;;;;;;4.18;3.85;;;;;;;17.63;77.98;93352.34;5008698;28;20041;-43
2022/07/09 07:04:25;;;;;;;4.50;4.10;;;;;;;18.35;72.80;93348.69;5128210;27;20695;-44
2022/07/09 07:06:51;;;;;;;4.55;4.15;;;;;;;18.30;72.80;93343.47;5128652;27;20053;-42
2022/07/09 07:09:21;;;;;;;5.28;4.13;;;;;;;18.16;74.50;93330.03;5127090;28;20031;-42
2022/07/09 07:11:49;;;;;;;7.78;4.30;;;;;;;17.98;74.04;93342.09;5107987;27;20403;-42
2022/07/09 07:14:16;;;;;;;4.95;4.40;;;;;;;17.98;74.08;93345.63;5108026;28;20058;-44
2022/07/09 07:16:42;;;;;;;5.20;4.70;;;;;;;17.97;75.05;93338.59;5107949;28;20031;-43
2022/07/09 07:19:08;;;;;;;6.45;5.85;;;;;;;17.85;74.62;93340.56;5119088;28;20019;-43
2022/07/09 07:21:33;;;;;;;7.85;4.75;;;;;;;17.77;75.15;93334.47;5107625;28;20020;-45
2022/07/09 07:23:59;;;;;;;5.70;5.13;;;;;;;17.81;75.61;93323.56;5115620;28;20026;-45
2022/07/09 07:26:25;;;;;;;4.95;4.55;;;;;;;17.84;74.96;93330.00;5111035;27;20503;-43
2022/07/09 07:28:50;;;;;;;4.93;4.50;;;;;;;17.83;75.10;93320.91;5107416;28;20024;-42
2022/07/09 07:31:16;;;;;;;4.35;4.00;;;;;;;17.89;75.63;93323.34;5107316;28;20031;-41
2022/07/09 07:33:42;;;;;;;4.72;4.25;;;;;;;17.85;75.23;93331.47;5107328;28;20544;-41
2022/07/09 07:36:08;;;;;;;7.25;4.03;;;;;;;17.83;76.22;93325.75;5106397;28;20103;-42
2022/07/09 07:38:34;;;;;;;6.68;3.60;;;;;;;17.81;75.78;93325.63;5104772;28;20607;-42
2022/07/09 07:41:00;;;;;;;3.13;2.83;;;;;;;17.79;74.94;93334.59;5106382;28;20055;-42
2022/07/09 07:43:25;;;;;;;3.45;3.15;;;;;;;17.74;75.61;93341.25;5125813;27;20092;-43
2022/07/09 07:45:51;;;;;;;3.65;3.35;;;;;;;17.69;76.47;93339.53;5125671;27;20106;-43
2022/07/09 07:48:16;;;;;;;10.60;3.80;;;;;;;17.58;76.15;93347.81;5125568;27;20024;-42
2022/07/09 07:50:42;;;;;;;5.05;4.07;;;;;;;17.48;76.96;93319.94;5124330;27;20028;-43
2022/07/09 07:53:08;;;;;;;13.02;12.23;;;;;;;17.42;77.30;93347.44;5104687;28;20098;-43
2022/07/09 07:55:34;;;;;;;7.05;6.45;;;;;;;17.41;77.96;93355.06;5103671;28;20028;-42
2022/07/09 07:58:00;;;;;;;3.78;3.47;;;;;;;17.32;77.44;93336.34;5120416;28;20624;-43
2022/07/09 08:00:25;;;;;;;3.95;3.20;;;;;;;17.22;77.59;93318.16;5120583;27;20020;-42
2022/07/09 08:02:51;;;;;;;4.85;4.45;;;;;;;17.47;77.61;93351.25;5118384;27;20043;-42
2022/07/09 08:05:17;;;;;;;5.18;4.68;;;;;;;17.47;78.00;93351.97;5105363;27;20476;-42
2022/07/09 08:07:42;;;;;;;6.40;5.75;;;;;;;17.46;78.39;93344.91;5099260;28;20019;-42
2022/07/09 08:10:08;;;;;;;6.25;5.60;;;;;;;17.56;79.24;93337.25;5100824;28;20029;-41
2022/07/09 08:12:34;;;;;;;15.95;5.97;;;;;;;17.61;77.75;93347.34;5101084;28;20051;-41
2022/07/09 08:14:59;;;;;;;6.85;6.15;;;;;;;17.65;78.56;93358.78;5099777;28;20027;-41
2022/07/09 08:17:25;;;;;;;7.55;6.82;;;;;;;17.68;77.75;93357.59;5099197;28;20111;-41
2022/07/09 08:19:50;;;;;;;7.47;6.78;;;;;;;17.68;77.77;93354.06;5100565;28;20500;-45
2022/07/09 08:22:16;;;;;;;6.60;6.00;;;;;;;17.68;78.09;93331.72;5101402;28;20417;-46
2022/07/09 08:24:42;;;;;;;11.27;7.05;;;;;;;17.84;77.72;93344.72;5098438;28;20517;-41
2022/07/09 08:27:07;;;;;;;5.13;4.50;;;;;;;17.99;77.41;93346.34;5099919;27;20035;-40
2022/07/09 08:29:33;;;;;;;5.13;4.63;;;;;;;18.06;75.84;93343.34;5100019;28;20024;-42
2022/07/09 08:31:58;;;;;;;2.83;2.63;;;;;;;18.08;75.51;93345.56;5098467;28;20024;-43
2022/07/09 08:34:24;;;;;;;3.55;3.17;;;;;;;18.08;75.79;93335.09;5103574;28;20507;-42
2022/07/09 08:36:49;;;;;;;2.30;2.10;;;;;;;18.21;76.47;93339.41;5099392;28;20519;-41
2022/07/09 08:53:13;;;;;;;9.63;6.60;;;;;;;19.57;69.82;93347.19;5061806;28;20799;-44
2022/07/09 08:55:39;;;;;;;6.35;2.92;;;;;;;19.50;69.32;93350.97;5045901;28;20179;-44
2022/07/09 08:58:05;;;;;;;6.80;5.32;;;;;;;19.35;70.24;93351.47;5041638;28;20029;-44
2022/07/09 09:00:32;;;;;;;3.58;2.50;;;;;;;19.08;71.56;93356.06;5041533;28;20031;-42
2022/07/09 09:02:57;;;;;;;4.18;3.78;;;;;;;19.03;70.48;93354.34;5051788;28;20037;-42
2022/07/09 09:05:23;;;;;;;2.20;1.77;;;;;;;18.82;71.28;93358.69;5050784;27;20043;-43
2022/07/09 09:07:49;;;;;;;4.47;4.00;;;;;;;18.67;73.10;93356.34;5047376;28;20653;-43
2022/07/09 09:10:25;;;;;;;3.47;3.17;;;;;;;18.56;72.57;93368.22;5054245;27;20024;-42
2022/07/09 09:13:01;;;;;;;3.85;3.45;;;;;;;18.49;73.50;93360.81;5048884;28;20051;-44
2022/07/09 09:15:28;;;;;;;8.55;4.30;;;;;;;18.38;74.31;93330.72;5047240;28;20028;-44
2022/07/09 09:17:54;;;;;;;3.28;2.97;;;;;;;18.51;73.65;93363.72;5063881;28;20032;-42
2022/07/09 09:20:21;;;;;;;3.40;3.10;;;;;;;18.55;73.36;93363.25;5063103;28;20083;-43
2022/07/09 09:22:53;;;;;;;4.70;4.13;;;;;;;18.48;73.90;93372.56;5062848;28;20033;-44
2022/07/09 09:25:20;;;;;;;10.20;8.07;;;;;;;18.50;73.09;93344.75;5054862;28;20032;-42
2022/07/09 09:27:56;;;;;;;9.43;7.13;;;;;;;18.51;74.06;93358.13;5061464;28;20040;-42
2022/07/09 09:30:22;;;;;;;13.48;9.38;;;;;;;18.46;74.29;93378.03;5062852;28;20024;-42
2022/07/09 09:33:01;;;;;;;11.60;6.03;;;;;;;18.40;73.43;93372.03;5063295;28;20113;-43
2022/07/09 09:35:28;;;;;;;11.98;7.53;;;;;;;18.43;75.23;93368.75;5063381;28;20021;-43
2022/07/09 09:37:55;;;;;;;9.20;6.28;;;;;;;18.46;74.61;93358.47;5062711;28;20035;-44
2022/07/09 09:40:21;;;;;;;8.18;5.63;;;;;;;18.48;74.85;93355.81;5062864;27;20025;-43
2022/07/09 09:42:47;;;;;;;5.50;3.40;;;;;;;18.46;74.02;93348.03;5063250;28;20028;-43
2022/07/09 09:45:14;;;;;;;4.10;3.10;;;;;;;18.83;73.93;93359.44;5062380;28;20029;-45
2022/07/09 09:47:45;;;;;;;2.00;1.80;;;;;;;18.94;72.72;93361.50;5063254;27;20057;-43
2022/07/09 09:50:17;;;;;;;4.22;2.88;;;;;;;18.92;73.55;93356.53;5062694;28;20081;-44
2022/07/09 09:52:44;;;;;;;1.98;1.70;;;;;;;18.91;73.17;93313.09;5057675;28;20509;-44
2022/07/09 09:55:11;;;;;;;1.60;1.50;;;;;;;19.48;73.08;93350.13;5041267;28;20029;-44
2022/07/09 09:57:38;;;;;;;2.90;2.58;;;;;;;19.66;70.63;93359.59;5042341;28;20037;-43
2022/07/09 10:00:04;;;;;;;4.72;2.72;;;;;;;19.65;70.55;93350.47;5045432;28;20382;-44
2022/07/09 10:02:30;;;;;;;3.03;2.72;;;;;;;19.69;71.33;93335.97;5041035;28;20017;-45
2022/07/09 10:04:56;;;;;;;3.30;2.95;;;;;;;19.72;70.36;93337.56;5041955;28;20063;-44
2022/07/09 10:07:22;;;;;;;2.40;2.00;;;;;;;19.71;69.35;93344.47;5042888;28;20058;-44
2022/07/09 10:09:56;;;;;;;3.03;2.55;;;;;;;19.99;68.87;93353.81;5041271;28;20029;-45
2022/07/09 10:12:29;;;;;;;2.63;2.40;;;;;;;20.04;67.86;93355.50;5039243;28;20093;-45
2022/07/09 10:14:55;;;;;;;3.40;3.10;;;;;;;20.12;67.38;93347.56;5042191;28;20048;-43
2022/07/09 10:17:21;;;;;;;4.60;4.20;;;;;;;20.02;66.08;93341.38;5038233;28;20692;-44
2022/07/09 10:20:06;;;;;;;4.75;4.25;;;;;;;20.07;64.20;93357.81;5029403;28;20106;-44
2022/07/09 10:22:36;;;;;;;4.88;4.47;;;;;;;19.69;64.91;93349.97;5045446;28;20028;-45
2022/07/09 10:25:03;;;;;;;4.35;3.60;;;;;;;19.63;67.41;93336.34;5042762;28;20049;-45
2022/07/09 10:27:28;;;;;;;4.45;3.83;;;;;;;19.76;67.02;93346.19;5039884;28;20029;-44
2022/07/09 10:29:59;;;;;;;3.72;3.42;;;;;;;19.79;66.77;93344.22;5043950;28;20080;-43
2022/07/09 10:32:28;;;;;;;5.50;3.20;;;;;;;19.63;67.20;93344.00;5046692;28;20024;-45
2022/07/09 10:35:04;;;;;;;5.70;3.10;;;;;;;19.59;69.29;93338.19;5048710;28;20029;-43
2022/07/09 10:37:42;;;;;;;4.72;3.42;;;;;;;19.43;69.42;93343.53;5049059;28;20036;-45
2022/07/09 10:40:13;;;;;;;5.13;4.40;;;;;;;19.32;69.21;93344.25;5049036;28;20033;-44
2022/07/09 10:42:41;;;;;;;4.95;4.55;;;;;;;19.16;69.74;93323.69;5048782;28;20481;-44
2022/07/09 10:45:31;;;;;;;5.93;5.43;;;;;;;19.36;69.88;93330.53;5044593;28;20029;-44
2022/07/09 10:48:02;;;;;;;6.35;5.78;;;;;;;19.42;70.00;93332.97;5048809;28;20033;-43
2022/07/09 10:50:30;;;;;;;6.20;5.60;;;;;;;19.33;70.54;93325.38;5039779;28;20021;-43
2022/07/09 10:52:57;;;;;;;7.40;6.47;;;;;;;19.17;70.21;93316.00;5033945;28;20072;-43
2022/07/09 10:55:26;;;;;;;6.80;5.78;;;;;;;19.12;71.55;93323.47;5048984;28;20555;-43
2022/07/09 10:57:53;;;;;;;8.52;6.75;;;;;;;19.20;72.06;93326.72;5048667;28;20025;-43
2022/07/09 11:00:24;;;;;;;7.15;6.50;;;;;;;19.43;71.55;93335.16;5036463;28;20030;-43
2022/07/09 11:02:53;;;;;;;8.30;6.72;;;;;;;19.98;73.59;93321.53;5047385;28;20044;-42
2022/07/09 11:05:18;;;;;;;;;;;;;;;20.55;67.26;93322.66;5036878;28;20085;-42
2022/07/09 11:08:00;;;;;;;5.95;5.30;;;;;;;20.92;67.15;93321.19;5032753;28;19913;-45
2022/07/09 11:10:27;;;;;;;5.93;5.43;;;;;;;20.89;63.77;93325.25;5033193;28;20025;-46
2022/07/09 11:13:01;;;;;;;5.35;4.88;;;;;;;20.65;66.91;93320.41;5035768;28;20053;-45
2022/07/09 11:15:34;;;;;;;6.30;5.70;;;;;;;20.74;66.27;93328.66;5034030;28;20413;-43
2022/07/09 11:18:03;;;;;;;5.55;4.45;;;;;;;21.03;65.23;93330.91;5036083;28;20032;-43
2022/07/09 11:20:36;;;;;;;4.35;3.80;;;;;;;21.63;66.48;93310.91;5028154;28;20490;-44
2022/07/09 11:23:02;;;;;;;5.57;3.95;;;;;;;21.89;60.83;93312.97;5034705;28;20052;-44
2022/07/09 11:25:29;;;;;;;4.57;3.92;;;;;;;21.53;61.54;93310.38;5047858;28;20116;-41
2022/07/09 11:27:56;;;;;;;5.50;4.30;;;;;;;21.27;64.80;93325.88;5041941;28;20506;-42
2022/07/09 11:30:23;;;;;;;4.25;3.60;;;;;;;21.05;63.59;93328.94;5039487;28;20060;-44
2022/07/09 11:32:54;;;;;;;4.07;3.67;;;;;;;21.00;65.11;93320.91;5048116;28;20021;-50
2022/07/09 11:35:30;;;;;;;5.72;3.13;;;;;;;20.83;64.66;93310.16;5048170;28;20032;-42
2022/07/09 11:37:58;;;;;;;3.90;3.60;;;;;;;20.94;63.74;93312.88;5043515;28;20035;-42
2022/07/09 11:40:24;;;;;;;3.53;3.22;;;;;;;21.05;63.69;93303.69;5044266;28;20087;-44
2022/07/09 11:42:50;;;;;;;2.78;2.58;;;;;;;20.90;63.17;93312.66;5037540;28;20086;-42
2022/07/09 11:45:21;;;;;;;2.60;2.42;;;;;;;20.76;63.72;93319.59;5037061;28;20112;-41
2022/07/09 11:47:48;;;;;;;3.22;2.92;;;;;;;20.19;65.01;93321.31;5036250;28;20026;-41
2022/07/09 11:50:20;;;;;;;3.65;2.78;;;;;;;19.88;65.61;93318.84;5030670;28;20054;-41
2022/07/09 11:52:50;;;;;;;3.13;2.92;;;;;;;19.80;67.32;93328.88;5027758;28;20783;-42
2022/07/09 11:55:21;;;;;;;3.50;3.20;;;;;;;19.64;67.16;93323.06;5027900;28;20034;-40
2022/07/09 11:58:03;;;;;;;2.85;2.55;;;;;;;19.54;67.93;93328.81;5028727;28;20033;-42
2022/07/09 12:00:30;;;;;;;2.42;2.22;;;;;;;19.66;67.22;93331.59;5029206;28;20416;-42
2022/07/09 12:03:05;;;;;;;2.97;2.65;;;;;;;19.71;67.18;93324.16;5038213;28;20044;-42